sensor_id;sensor_type;location;lat;lon;timestamp;temperature;humidity
36924;DHT22;22841;50.252;18.688;2022-10-31T00:00:59;10.70;99.90
36924;DHT22;22841;50.252;18.688;2022-10-31T00:03:25;10.80;99.90
36924;DHT22;22841;50.252;18.688;2022-10-31T00:05:52;10.80;99.90
36924;DHT22;22841;50.252;18.688;2022-10-31T00:08:19;10.80;99.90
36924;DHT22;22841;50.252;18.688;2022-10-31T00:10:45;10.80;99.90
36924;DHT22;22841;50.252;18.688;2022-10-31T00:13:13;10.70;99.90
36924;DHT22;22841;50.252;18.688;2022-10-31T00:15:40;10.80;99.90
36924;DHT22;22841;50.252;18.688;2022-10-31T00:18:07;10.80;99.90
36924;DHT22;22841;50.252;18.688;2022-10-31T00:20:34;10.60;99.90
36924;DHT22;22841;50.252;18.688;2022-10-31T00:23:02;10.60;99.90
36924;DHT22;22841;50.252;18.688;2022-10-31T00:25:32;10.50;99.90
36924;DHT22;22841;50.252;18.688;2022-10-31T00:27:59;10.50;99.90
36924;DHT22;22841;50.252;18.688;2022-10-31T00:30:26;10.40;99.90
36924;DHT22;22841;50.252;18.688;2022-10-31T00:32:52;10.40;99.90
36924;DHT22;22841;50.252;18.688;2022-10-31T00:35:18;10.40;99.90
36924;DHT22;22841;50.252;18.688;2022-10-31T00:37:44;10.40;99.90
36924;DHT22;22841;50.252;18.688;2022-10-31T00:40:10;10.50;99.90
36924;DHT22;22841;50.252;18.688;2022-10-31T00:42:36;10.50;99.90
36924;DHT22;22841;50.252;18.688;2022-10-31T00:45:03;10.50;99.90
36924;DHT22;22841;50.252;18.688;2022-10-31T00:47:29;10.50;99.90
36924;DHT22;22841;50.252;18.688;2022-10-31T00:49:55;10.50;99.90
36924;DHT22;22841;50.252;18.688;2022-10-31T00:52:21;10.50;99.90
36924;DHT22;22841;50.252;18.688;2022-10-31T00:54:47;10.60;99.90
36924;DHT22;22841;50.252;18.688;2022-10-31T00:57:13;10.50;99.90
36924;DHT22;22841;50.252;18.688;2022-10-31T00:59:39;10.60;99.90
36924;DHT22;22841;50.252;18.688;2022-10-31T01:02:05;10.60;99.90
36924;DHT22;22841;50.252;18.688;2022-10-31T01:04:31;10.60;99.90
36924;DHT22;22841;50.252;18.688;2022-10-31T01:06:57;10.60;99.90
36924;DHT22;22841;50.252;18.688;2022-10-31T01:09:24;10.50;99.90
36924;DHT22;22841;50.252;18.688;2022-10-31T01:11:50;10.50;99.90
36924;DHT22;22841;50.252;18.688;2022-10-31T01:14:16;10.50;99.90
36924;DHT22;22841;50.252;18.688;2022-10-31T01:16:42;10.60;99.90
36924;DHT22;22841;50.252;18.688;2022-10-31T01:19:08;10.70;99.90
36924;DHT22;22841;50.252;18.688;2022-10-31T01:21:34;10.70;99.90
36924;DHT22;22841;50.252;18.688;2022-10-31T01:24:00;10.70;99.90
36924;DHT22;22841;50.252;18.688;2022-10-31T01:26:32;10.70;99.90
36924;DHT22;22841;50.252;18.688;2022-10-31T01:29:00;10.70;99.90
36924;DHT22;22841;50.252;18.688;2022-10-31T01:31:30;10.70;99.90
36924;DHT22;22841;50.252;18.688;2022-10-31T01:33:57;10.70;99.90
36924;DHT22;22841;50.252;18.688;2022-10-31T01:36:27;10.70;99.90
36924;DHT22;22841;50.252;18.688;2022-10-31T01:38:56;10.60;99.90
36924;DHT22;22841;50.252;18.688;2022-10-31T01:41:27;10.60;99.90
36924;DHT22;22841;50.252;18.688;2022-10-31T01:44:01;10.50;99.90
36924;DHT22;22841;50.252;18.688;2022-10-31T01:46:33;10.40;99.90
36924;DHT22;22841;50.252;18.688;2022-10-31T01:49:03;10.40;99.90
36924;DHT22;22841;50.252;18.688;2022-10-31T01:51:33;10.30;99.90
36924;DHT22;22841;50.252;18.688;2022-10-31T01:54:04;10.40;99.90
36924;DHT22;22841;50.252;18.688;2022-10-31T01:56:33;10.40;99.90
36924;DHT22;22841;50.252;18.688;2022-10-31T01:59:01;10.40;99.90
36924;DHT22;22841;50.252;18.688;2022-10-31T02:01:29;10.40;99.90
36924;DHT22;22841;50.252;18.688;2022-10-31T02:03:55;10.30;99.90
36924;DHT22;22841;50.252;18.688;2022-10-31T02:06:31;10.30;99.90
36924;DHT22;22841;50.252;18.688;2022-10-31T02:08:58;10.30;99.90
36924;DHT22;22841;50.252;18.688;2022-10-31T02:11:28;10.30;99.90
36924;DHT22;22841;50.252;18.688;2022-10-31T02:13:55;10.20;99.90
36924;DHT22;22841;50.252;18.688;2022-10-31T02:16:24;10.20;99.90
36924;DHT22;22841;50.252;18.688;2022-10-31T02:18:50;10.20;99.90
36924;DHT22;22841;50.252;18.688;2022-10-31T02:37:33;10.20;99.90
36924;DHT22;22841;50.252;18.688;2022-10-31T02:42:40;10.10;99.90
36924;DHT22;22841;50.252;18.688;2022-10-31T02:45:26;10.00;99.90
36924;DHT22;22841;50.252;18.688;2022-10-31T02:47:58;10.00;99.90
36924;DHT22;22841;50.252;18.688;2022-10-31T02:50:32;9.90;99.90
36924;DHT22;22841;50.252;18.688;2022-10-31T02:53:02;9.90;99.90
36924;DHT22;22841;50.252;18.688;2022-10-31T02:58:15;9.90;99.90
36924;DHT22;22841;50.252;18.688;2022-10-31T03:03:35;9.80;99.90
36924;DHT22;22841;50.252;18.688;2022-10-31T03:06:20;9.80;99.90
36924;DHT22;22841;50.252;18.688;2022-10-31T03:11:25;9.80;99.90
36924;DHT22;22841;50.252;18.688;2022-10-31T03:16:29;9.80;99.90
36924;DHT22;22841;50.252;18.688;2022-10-31T03:21:40;9.90;99.90
36924;DHT22;22841;50.252;18.688;2022-10-31T03:24:10;9.80;99.90
36924;DHT22;22841;50.252;18.688;2022-10-31T03:26:38;9.80;99.90
36924;DHT22;22841;50.252;18.688;2022-10-31T03:29:08;9.80;99.90
36924;DHT22;22841;50.252;18.688;2022-10-31T03:31:42;9.80;99.90
36924;DHT22;22841;50.252;18.688;2022-10-31T03:34:09;9.80;99.90
36924;DHT22;22841;50.252;18.688;2022-10-31T03:36:38;9.90;99.90
36924;DHT22;22841;50.252;18.688;2022-10-31T03:39:08;9.90;99.90
36924;DHT22;22841;50.252;18.688;2022-10-31T03:41:41;10.00;99.90
36924;DHT22;22841;50.252;18.688;2022-10-31T03:44:14;10.00;99.90
36924;DHT22;22841;50.252;18.688;2022-10-31T03:46:41;10.00;99.90
36924;DHT22;22841;50.252;18.688;2022-10-31T03:49:08;10.00;99.90
36924;DHT22;22841;50.252;18.688;2022-10-31T03:51:44;10.00;99.90
36924;DHT22;22841;50.252;18.688;2022-10-31T03:54:23;9.90;99.90
36924;DHT22;22841;50.252;18.688;2022-10-31T03:57:05;9.80;99.90
36924;DHT22;22841;50.252;18.688;2022-10-31T03:59:35;9.80;99.90
36924;DHT22;22841;50.252;18.688;2022-10-31T04:02:06;9.70;99.90
36924;DHT22;22841;50.252;18.688;2022-10-31T04:04:35;9.70;99.90
36924;DHT22;22841;50.252;18.688;2022-10-31T04:07:03;9.70;99.90
36924;DHT22;22841;50.252;18.688;2022-10-31T04:09:33;9.70;99.90
36924;DHT22;22841;50.252;18.688;2022-10-31T04:12:01;9.70;99.90
36924;DHT22;22841;50.252;18.688;2022-10-31T04:14:29;9.70;99.90
36924;DHT22;22841;50.252;18.688;2022-10-31T04:16:58;9.70;99.90
36924;DHT22;22841;50.252;18.688;2022-10-31T04:19:24;9.70;99.90
36924;DHT22;22841;50.252;18.688;2022-10-31T04:21:50;9.70;99.90
36924;DHT22;22841;50.252;18.688;2022-10-31T04:24:16;9.70;99.90
36924;DHT22;22841;50.252;18.688;2022-10-31T04:26:42;9.60;99.90
36924;DHT22;22841;50.252;18.688;2022-10-31T04:29:08;9.70;99.90
36924;DHT22;22841;50.252;18.688;2022-10-31T04:31:34;9.70;99.90
36924;DHT22;22841;50.252;18.688;2022-10-31T04:34:00;9.60;99.90
36924;DHT22;22841;50.252;18.688;2022-10-31T04:36:27;9.50;99.90
36924;DHT22;22841;50.252;18.688;2022-10-31T04:38:53;9.50;99.90
36924;DHT22;22841;50.252;18.688;2022-10-31T04:41:19;9.50;99.90
36924;DHT22;22841;50.252;18.688;2022-10-31T04:43:45;9.50;99.90
36924;DHT22;22841;50.252;18.688;2022-10-31T04:46:11;9.60;99.90
36924;DHT22;22841;50.252;18.688;2022-10-31T04:48:37;9.60;99.90
36924;DHT22;22841;50.252;18.688;2022-10-31T04:51:03;9.60;99.90
36924;DHT22;22841;50.252;18.688;2022-10-31T04:53:29;9.60;99.90
36924;DHT22;22841;50.252;18.688;2022-10-31T04:55:58;9.50;99.90
36924;DHT22;22841;50.252;18.688;2022-10-31T04:58:24;9.50;99.90
36924;DHT22;22841;50.252;18.688;2022-10-31T05:00:55;9.60;99.90
36924;DHT22;22841;50.252;18.688;2022-10-31T05:03:21;9.50;99.90
36924;DHT22;22841;50.252;18.688;2022-10-31T05:05:47;9.50;99.90
36924;DHT22;22841;50.252;18.688;2022-10-31T05:08:14;9.50;99.90
36924;DHT22;22841;50.252;18.688;2022-10-31T05:10:46;9.60;99.90
36924;DHT22;22841;50.252;18.688;2022-10-31T05:13:12;9.60;99.90
36924;DHT22;22841;50.252;18.688;2022-10-31T05:15:38;9.60;99.90
36924;DHT22;22841;50.252;18.688;2022-10-31T05:18:04;9.60;99.90
36924;DHT22;22841;50.252;18.688;2022-10-31T05:20:31;9.60;99.90
36924;DHT22;22841;50.252;18.688;2022-10-31T05:22:59;9.60;99.90
36924;DHT22;22841;50.252;18.688;2022-10-31T05:25:27;9.70;99.90
36924;DHT22;22841;50.252;18.688;2022-10-31T05:27:54;9.70;99.90
36924;DHT22;22841;50.252;18.688;2022-10-31T05:30:29;9.70;99.90
36924;DHT22;22841;50.252;18.688;2022-10-31T05:32:56;9.70;99.90
36924;DHT22;22841;50.252;18.688;2022-10-31T05:35:25;9.60;99.90
36924;DHT22;22841;50.252;18.688;2022-10-31T05:37:51;9.60;99.90
36924;DHT22;22841;50.252;18.688;2022-10-31T05:40:19;9.50;99.90
36924;DHT22;22841;50.252;18.688;2022-10-31T05:42:45;9.60;99.90
36924;DHT22;22841;50.252;18.688;2022-10-31T05:45:14;9.50;99.90
36924;DHT22;22841;50.252;18.688;2022-10-31T05:47:41;9.60;99.90
36924;DHT22;22841;50.252;18.688;2022-10-31T05:50:07;9.40;99.90
36924;DHT22;22841;50.252;18.688;2022-10-31T05:52:34;9.40;99.90
36924;DHT22;22841;50.252;18.688;2022-10-31T05:55:01;9.40;99.90
36924;DHT22;22841;50.252;18.688;2022-10-31T05:57:28;9.40;99.90
36924;DHT22;22841;50.252;18.688;2022-10-31T05:59:54;9.40;99.90
36924;DHT22;22841;50.252;18.688;2022-10-31T06:02:21;9.40;99.90
36924;DHT22;22841;50.252;18.688;2022-10-31T06:04:48;9.40;99.90
36924;DHT22;22841;50.252;18.688;2022-10-31T06:07:14;9.40;99.90
36924;DHT22;22841;50.252;18.688;2022-10-31T06:09:40;9.40;99.90
36924;DHT22;22841;50.252;18.688;2022-10-31T06:12:06;9.30;99.90
36924;DHT22;22841;50.252;18.688;2022-10-31T06:14:32;9.40;99.90
36924;DHT22;22841;50.252;18.688;2022-10-31T06:16:58;9.40;99.90
36924;DHT22;22841;50.252;18.688;2022-10-31T06:19:25;9.40;99.90
36924;DHT22;22841;50.252;18.688;2022-10-31T06:21:51;9.40;99.90
36924;DHT22;22841;50.252;18.688;2022-10-31T06:24:18;9.50;99.90
36924;DHT22;22841;50.252;18.688;2022-10-31T06:26:44;9.40;99.90
36924;DHT22;22841;50.252;18.688;2022-10-31T06:29:10;9.50;99.90
36924;DHT22;22841;50.252;18.688;2022-10-31T06:31:36;9.50;99.90
36924;DHT22;22841;50.252;18.688;2022-10-31T06:34:02;9.50;99.90
36924;DHT22;22841;50.252;18.688;2022-10-31T06:36:28;9.50;99.90
36924;DHT22;22841;50.252;18.688;2022-10-31T06:38:54;9.40;99.90
36924;DHT22;22841;50.252;18.688;2022-10-31T06:41:21;9.50;99.90
36924;DHT22;22841;50.252;18.688;2022-10-31T06:43:47;9.40;99.90
36924;DHT22;22841;50.252;18.688;2022-10-31T06:46:13;9.50;99.90
36924;DHT22;22841;50.252;18.688;2022-10-31T06:48:43;9.50;99.90
36924;DHT22;22841;50.252;18.688;2022-10-31T06:51:09;9.60;99.90
36924;DHT22;22841;50.252;18.688;2022-10-31T06:53:35;9.60;99.90
36924;DHT22;22841;50.252;18.688;2022-10-31T06:56:01;9.60;99.90
36924;DHT22;22841;50.252;18.688;2022-10-31T06:58:27;9.60;99.90
36924;DHT22;22841;50.252;18.688;2022-10-31T07:00:53;9.60;99.90
36924;DHT22;22841;50.252;18.688;2022-10-31T07:03:19;9.60;99.90
36924;DHT22;22841;50.252;18.688;2022-10-31T07:05:46;9.70;99.90
36924;DHT22;22841;50.252;18.688;2022-10-31T07:08:13;9.70;99.90
36924;DHT22;22841;50.252;18.688;2022-10-31T07:10:41;9.70;99.90
36924;DHT22;22841;50.252;18.688;2022-10-31T07:13:14;9.70;99.90
36924;DHT22;22841;50.252;18.688;2022-10-31T07:15:41;9.80;99.90
36924;DHT22;22841;50.252;18.688;2022-10-31T07:18:09;9.80;99.90
36924;DHT22;22841;50.252;18.688;2022-10-31T07:20:36;9.90;99.90
36924;DHT22;22841;50.252;18.688;2022-10-31T07:23:02;9.80;99.90
36924;DHT22;22841;50.252;18.688;2022-10-31T07:25:29;9.90;99.90
36924;DHT22;22841;50.252;18.688;2022-10-31T07:27:55;9.90;99.90
36924;DHT22;22841;50.252;18.688;2022-10-31T07:30:21;9.90;99.90
36924;DHT22;22841;50.252;18.688;2022-10-31T07:32:49;9.90;99.90
36924;DHT22;22841;50.252;18.688;2022-10-31T07:35:17;10.00;99.90
36924;DHT22;22841;50.252;18.688;2022-10-31T07:37:43;9.90;99.90
36924;DHT22;22841;50.252;18.688;2022-10-31T07:40:10;10.00;99.90
36924;DHT22;22841;50.252;18.688;2022-10-31T07:42:38;10.00;99.90
36924;DHT22;22841;50.252;18.688;2022-10-31T07:45:06;10.00;99.90
36924;DHT22;22841;50.252;18.688;2022-10-31T07:47:39;10.00;99.90
36924;DHT22;22841;50.252;18.688;2022-10-31T07:50:06;10.10;99.90
36924;DHT22;22841;50.252;18.688;2022-10-31T07:52:33;10.10;99.90
36924;DHT22;22841;50.252;18.688;2022-10-31T07:54:59;10.20;99.90
36924;DHT22;22841;50.252;18.688;2022-10-31T07:57:25;10.20;99.90
36924;DHT22;22841;50.252;18.688;2022-10-31T07:59:51;10.30;99.90
36924;DHT22;22841;50.252;18.688;2022-10-31T08:02:17;10.40;99.90
36924;DHT22;22841;50.252;18.688;2022-10-31T08:04:43;10.40;99.90
36924;DHT22;22841;50.252;18.688;2022-10-31T08:07:09;10.50;99.90
36924;DHT22;22841;50.252;18.688;2022-10-31T08:09:35;10.50;99.90
36924;DHT22;22841;50.252;18.688;2022-10-31T08:12:02;10.60;99.90
36924;DHT22;22841;50.252;18.688;2022-10-31T08:14:28;10.60;99.90
36924;DHT22;22841;50.252;18.688;2022-10-31T08:16:54;10.70;99.90
36924;DHT22;22841;50.252;18.688;2022-10-31T08:19:20;10.70;99.90
36924;DHT22;22841;50.252;18.688;2022-10-31T08:21:46;10.80;99.90
36924;DHT22;22841;50.252;18.688;2022-10-31T08:24:15;11.00;99.90
36924;DHT22;22841;50.252;18.688;2022-10-31T08:26:42;11.00;99.90
36924;DHT22;22841;50.252;18.688;2022-10-31T08:29:08;11.10;99.90
36924;DHT22;22841;50.252;18.688;2022-10-31T08:31:34;11.20;99.90
36924;DHT22;22841;50.252;18.688;2022-10-31T08:34:00;11.30;99.90
36924;DHT22;22841;50.252;18.688;2022-10-31T08:36:29;11.40;99.90
36924;DHT22;22841;50.252;18.688;2022-10-31T08:38:55;11.60;99.90
36924;DHT22;22841;50.252;18.688;2022-10-31T08:41:21;11.70;99.90
36924;DHT22;22841;50.252;18.688;2022-10-31T08:43:48;11.90;99.90
36924;DHT22;22841;50.252;18.688;2022-10-31T08:46:14;12.00;99.90
36924;DHT22;22841;50.252;18.688;2022-10-31T08:48:40;12.10;99.90
36924;DHT22;22841;50.252;18.688;2022-10-31T08:51:06;12.20;99.90
36924;DHT22;22841;50.252;18.688;2022-10-31T08:53:32;12.40;99.90
36924;DHT22;22841;50.252;18.688;2022-10-31T08:56:31;12.50;99.90
36924;DHT22;22841;50.252;18.688;2022-10-31T08:58:57;12.60;99.90
36924;DHT22;22841;50.252;18.688;2022-10-31T09:01:23;12.70;99.90
36924;DHT22;22841;50.252;18.688;2022-10-31T09:03:49;12.80;99.90
36924;DHT22;22841;50.252;18.688;2022-10-31T09:06:15;12.90;99.90
36924;DHT22;22841;50.252;18.688;2022-10-31T09:08:42;13.00;99.90
36924;DHT22;22841;50.252;18.688;2022-10-31T09:11:08;13.20;99.90
36924;DHT22;22841;50.252;18.688;2022-10-31T09:13:34;13.30;99.90
36924;DHT22;22841;50.252;18.688;2022-10-31T09:16:00;13.40;99.90
36924;DHT22;22841;50.252;18.688;2022-10-31T09:18:26;13.40;99.90
36924;DHT22;22841;50.252;18.688;2022-10-31T09:20:53;13.60;99.90
36924;DHT22;22841;50.252;18.688;2022-10-31T09:23:22;13.70;99.90
36924;DHT22;22841;50.252;18.688;2022-10-31T09:25:50;13.80;99.90
36924;DHT22;22841;50.252;18.688;2022-10-31T09:28:18;13.90;99.90
36924;DHT22;22841;50.252;18.688;2022-10-31T09:30:47;14.20;99.90
36924;DHT22;22841;50.252;18.688;2022-10-31T09:33:13;14.20;99.90
36924;DHT22;22841;50.252;18.688;2022-10-31T09:35:41;14.30;99.90
36924;DHT22;22841;50.252;18.688;2022-10-31T09:38:16;14.40;99.90
36924;DHT22;22841;50.252;18.688;2022-10-31T09:40:43;14.60;99.90
36924;DHT22;22841;50.252;18.688;2022-10-31T09:51:42;14.80;99.90
36924;DHT22;22841;50.252;18.688;2022-10-31T09:54:54;14.90;99.90
36924;DHT22;22841;50.252;18.688;2022-10-31T09:57:14;15.00;99.90
36924;DHT22;22841;50.252;18.688;2022-10-31T09:59:43;15.00;99.90
36924;DHT22;22841;50.252;18.688;2022-10-31T10:02:37;15.10;99.90
36924;DHT22;22841;50.252;18.688;2022-10-31T10:05:14;15.10;99.90
36924;DHT22;22841;50.252;18.688;2022-10-31T10:07:59;15.20;99.90
36924;DHT22;22841;50.252;18.688;2022-10-31T10:19:02;15.50;99.90
36924;DHT22;22841;50.252;18.688;2022-10-31T10:29:31;15.80;98.80
36924;DHT22;22841;50.252;18.688;2022-10-31T10:32:01;15.70;99.90
36924;DHT22;22841;50.252;18.688;2022-10-31T10:34:41;15.80;99.90
36924;DHT22;22841;50.252;18.688;2022-10-31T10:37:20;15.70;99.90
36924;DHT22;22841;50.252;18.688;2022-10-31T10:39:54;15.70;99.90
36924;DHT22;22841;50.252;18.688;2022-10-31T10:42:24;15.80;99.90
36924;DHT22;22841;50.252;18.688;2022-10-31T10:45:18;15.90;99.80
36924;DHT22;22841;50.252;18.688;2022-10-31T10:48:08;15.90;99.90
36924;DHT22;22841;50.252;18.688;2022-10-31T10:50:41;15.90;99.90
36924;DHT22;22841;50.252;18.688;2022-10-31T10:53:47;15.80;99.90
36924;DHT22;22841;50.252;18.688;2022-10-31T10:56:45;15.90;99.90
36924;DHT22;22841;50.252;18.688;2022-10-31T10:59:18;16.00;99.90
36924;DHT22;22841;50.252;18.688;2022-10-31T11:01:45;16.10;99.90
36924;DHT22;22841;50.252;18.688;2022-10-31T11:04:34;16.20;99.20
36924;DHT22;22841;50.252;18.688;2022-10-31T11:07:05;16.10;99.90
36924;DHT22;22841;50.252;18.688;2022-10-31T11:09:32;16.20;99.70
36924;DHT22;22841;50.252;18.688;2022-10-31T11:11:59;16.40;92.90
36924;DHT22;22841;50.252;18.688;2022-10-31T11:14:27;16.40;93.80
36924;DHT22;22841;50.252;18.688;2022-10-31T11:17:07;16.30;52.80
36924;DHT22;22841;50.252;18.688;2022-10-31T11:19:34;16.40;68.60
36924;DHT22;22841;50.252;18.688;2022-10-31T11:22:12;16.60;29.40
36924;DHT22;22841;50.252;18.688;2022-10-31T11:24:40;16.50;41.20
36924;DHT22;22841;50.252;18.688;2022-10-31T11:27:24;16.50;34.20
36924;DHT22;22841;50.252;18.688;2022-10-31T11:29:51;16.50;32.70
36924;DHT22;22841;50.252;18.688;2022-10-31T11:32:23;16.60;26.30
36924;DHT22;22841;50.252;18.688;2022-10-31T11:34:56;16.60;33.90
36924;DHT22;22841;50.252;18.688;2022-10-31T11:37:30;16.70;5.30
36924;DHT22;22841;50.252;18.688;2022-10-31T11:40:00;16.80;1.00
36924;DHT22;22841;50.252;18.688;2022-10-31T11:42:34;16.90;1.00
36924;DHT22;22841;50.252;18.688;2022-10-31T11:45:05;17.00;1.00
36924;DHT22;22841;50.252;18.688;2022-10-31T11:47:33;17.00;1.00
36924;DHT22;22841;50.252;18.688;2022-10-31T11:50:02;16.90;1.00
36924;DHT22;22841;50.252;18.688;2022-10-31T11:52:37;17.10;1.00
36924;DHT22;22841;50.252;18.688;2022-10-31T11:55:29;16.90;10.30
36924;DHT22;22841;50.252;18.688;2022-10-31T11:57:56;17.00;1.00
36924;DHT22;22841;50.252;18.688;2022-10-31T12:00:32;17.00;1.00
36924;DHT22;22841;50.252;18.688;2022-10-31T12:03:26;17.00;20.60
36924;DHT22;22841;50.252;18.688;2022-10-31T12:06:00;17.10;1.00
36924;DHT22;22841;50.252;18.688;2022-10-31T12:08:30;17.20;1.00
36924;DHT22;22841;50.252;18.688;2022-10-31T12:16:16;17.30;1.00
36924;DHT22;22841;50.252;18.688;2022-10-31T12:18:49;17.30;1.00
36924;DHT22;22841;50.252;18.688;2022-10-31T12:21:24;17.30;1.00
36924;DHT22;22841;50.252;18.688;2022-10-31T12:24:31;17.40;1.00
36924;DHT22;22841;50.252;18.688;2022-10-31T12:33:12;17.80;1.00
36924;DHT22;22841;50.252;18.688;2022-10-31T12:43:53;17.70;1.00
36924;DHT22;22841;50.252;18.688;2022-10-31T12:46:25;17.80;99.90
36924;DHT22;22841;50.252;18.688;2022-10-31T12:59:59;17.70;1.00
36924;DHT22;22841;50.252;18.688;2022-10-31T13:08:04;17.90;99.90
36924;DHT22;22841;50.252;18.688;2022-10-31T13:10:47;17.90;99.90
36924;DHT22;22841;50.252;18.688;2022-10-31T13:13:27;18.00;99.90
36924;DHT22;22841;50.252;18.688;2022-10-31T13:16:08;18.10;99.90
36924;DHT22;22841;50.252;18.688;2022-10-31T13:22:04;18.10;99.90
36924;DHT22;22841;50.252;18.688;2022-10-31T13:24:43;18.10;99.90
36924;DHT22;22841;50.252;18.688;2022-10-31T13:27:24;18.10;99.90
36924;DHT22;22841;50.252;18.688;2022-10-31T13:30:17;18.10;99.90
36924;DHT22;22841;50.252;18.688;2022-10-31T13:33:01;18.10;99.90
36924;DHT22;22841;50.252;18.688;2022-10-31T13:46:26;18.50;99.90
36924;DHT22;22841;50.252;18.688;2022-10-31T13:49:00;18.50;84.20
36924;DHT22;22841;50.252;18.688;2022-10-31T13:51:31;18.50;99.90
36924;DHT22;22841;50.252;18.688;2022-10-31T13:54:00;18.50;6.10
36924;DHT22;22841;50.252;18.688;2022-10-31T13:56:30;18.40;99.90
36924;DHT22;22841;50.252;18.688;2022-10-31T14:01:49;18.20;99.90
36924;DHT22;22841;50.252;18.688;2022-10-31T14:04:19;18.20;99.90
36924;DHT22;22841;50.252;18.688;2022-10-31T14:06:56;18.20;99.90
36924;DHT22;22841;50.252;18.688;2022-10-31T14:09:38;18.30;99.90
36924;DHT22;22841;50.252;18.688;2022-10-31T14:14:51;18.20;99.90
36924;DHT22;22841;50.252;18.688;2022-10-31T14:17:23;18.20;99.90
36924;DHT22;22841;50.252;18.688;2022-10-31T14:22:44;18.10;99.90
36924;DHT22;22841;50.252;18.688;2022-10-31T14:25:33;18.10;99.90
36924;DHT22;22841;50.252;18.688;2022-10-31T14:28:02;18.00;99.90
36924;DHT22;22841;50.252;18.688;2022-10-31T14:30:33;18.00;99.90
36924;DHT22;22841;50.252;18.688;2022-10-31T14:33:16;17.90;99.90
36924;DHT22;22841;50.252;18.688;2022-10-31T14:36:10;17.90;99.90
36924;DHT22;22841;50.252;18.688;2022-10-31T14:52:50;17.30;1.00
36924;DHT22;22841;50.252;18.688;2022-10-31T14:55:18;17.20;1.00
36924;DHT22;22841;50.252;18.688;2022-10-31T14:57:52;17.00;1.00
36924;DHT22;22841;50.252;18.688;2022-10-31T15:00:21;16.80;1.80
36924;DHT22;22841;50.252;18.688;2022-10-31T15:03:16;16.70;4.40
36924;DHT22;22841;50.252;18.688;2022-10-31T15:05:50;16.50;14.20
36924;DHT22;22841;50.252;18.688;2022-10-31T15:11:17;16.20;8.50
36924;DHT22;22841;50.252;18.688;2022-10-31T15:13:46;16.00;13.60
36924;DHT22;22841;50.252;18.688;2022-10-31T15:16:15;15.90;23.90
36924;DHT22;22841;50.252;18.688;2022-10-31T15:18:58;15.80;26.50
36924;DHT22;22841;50.252;18.688;2022-10-31T15:21:24;15.70;26.50
36924;DHT22;22841;50.252;18.688;2022-10-31T15:23:56;15.50;31.40
36924;DHT22;22841;50.252;18.688;2022-10-31T15:26:31;15.40;35.00
36924;DHT22;22841;50.252;18.688;2022-10-31T15:29:04;15.30;43.90
36924;DHT22;22841;50.252;18.688;2022-10-31T15:31:31;15.20;46.00
36924;DHT22;22841;50.252;18.688;2022-10-31T15:34:06;15.10;54.10
36924;DHT22;22841;50.252;18.688;2022-10-31T15:36:33;14.90;52.90
36924;DHT22;22841;50.252;18.688;2022-10-31T15:38:59;14.80;55.10
36924;DHT22;22841;50.252;18.688;2022-10-31T15:44:00;14.70;72.40
36924;DHT22;22841;50.252;18.688;2022-10-31T15:46:27;14.60;72.90
36924;DHT22;22841;50.252;18.688;2022-10-31T15:48:55;14.50;81.90
36924;DHT22;22841;50.252;18.688;2022-10-31T15:51:30;14.40;74.70
36924;DHT22;22841;50.252;18.688;2022-10-31T15:53:58;14.50;81.20
36924;DHT22;22841;50.252;18.688;2022-10-31T15:56:28;14.30;74.80
36924;DHT22;22841;50.252;18.688;2022-10-31T15:58:57;14.20;75.30
36924;DHT22;22841;50.252;18.688;2022-10-31T16:01:33;14.20;86.90
36924;DHT22;22841;50.252;18.688;2022-10-31T16:04:19;14.20;86.00
36924;DHT22;22841;50.252;18.688;2022-10-31T16:07:00;14.20;87.80
36924;DHT22;22841;50.252;18.688;2022-10-31T16:09:26;14.10;90.30
36924;DHT22;22841;50.252;18.688;2022-10-31T16:11:53;14.10;88.60
36924;DHT22;22841;50.252;18.688;2022-10-31T16:14:24;14.00;85.60
36924;DHT22;22841;50.252;18.688;2022-10-31T16:16:57;14.00;90.30
36924;DHT22;22841;50.252;18.688;2022-10-31T16:21:55;13.90;83.60
36924;DHT22;22841;50.252;18.688;2022-10-31T16:24:32;13.80;89.10
36924;DHT22;22841;50.252;18.688;2022-10-31T16:27:07;13.80;85.50
36924;DHT22;22841;50.252;18.688;2022-10-31T16:29:44;13.70;83.70
36924;DHT22;22841;50.252;18.688;2022-10-31T16:35:24;13.60;89.30
36924;DHT22;22841;50.252;18.688;2022-10-31T16:37:48;13.60;90.30
36924;DHT22;22841;50.252;18.688;2022-10-31T16:40:14;13.50;87.20
36924;DHT22;22841;50.252;18.688;2022-10-31T16:42:42;13.50;88.10
36924;DHT22;22841;50.252;18.688;2022-10-31T16:45:16;13.30;83.50
36924;DHT22;22841;50.252;18.688;2022-10-31T16:47:43;13.30;90.90
36924;DHT22;22841;50.252;18.688;2022-10-31T16:50:28;13.30;90.40
36924;DHT22;22841;50.252;18.688;2022-10-31T16:52:54;13.20;88.90
36924;DHT22;22841;50.252;18.688;2022-10-31T16:55:21;13.20;90.10
36924;DHT22;22841;50.252;18.688;2022-10-31T16:57:52;13.20;89.40
36924;DHT22;22841;50.252;18.688;2022-10-31T17:00:21;13.10;89.00
36924;DHT22;22841;50.252;18.688;2022-10-31T17:02:50;13.00;88.40
36924;DHT22;22841;50.252;18.688;2022-10-31T17:05:18;13.00;90.90
36924;DHT22;22841;50.252;18.688;2022-10-31T17:07:45;13.00;91.00
36924;DHT22;22841;50.252;18.688;2022-10-31T17:10:13;12.90;90.90
36924;DHT22;22841;50.252;18.688;2022-10-31T17:12:42;13.00;91.30
36924;DHT22;22841;50.252;18.688;2022-10-31T17:15:18;12.90;91.30
36924;DHT22;22841;50.252;18.688;2022-10-31T17:17:45;12.80;92.20
36924;DHT22;22841;50.252;18.688;2022-10-31T17:22:48;12.80;91.40
36924;DHT22;22841;50.252;18.688;2022-10-31T17:25:18;12.70;91.00
36924;DHT22;22841;50.252;18.688;2022-10-31T17:27:45;12.60;90.70
36924;DHT22;22841;50.252;18.688;2022-10-31T17:30:12;12.60;92.50
36924;DHT22;22841;50.252;18.688;2022-10-31T17:32:39;12.70;92.80
36924;DHT22;22841;50.252;18.688;2022-10-31T17:58:54;12.30;90.90
36924;DHT22;22841;50.252;18.688;2022-10-31T18:01:22;12.20;91.20
36924;DHT22;22841;50.252;18.688;2022-10-31T18:03:48;12.20;91.30
36924;DHT22;22841;50.252;18.688;2022-10-31T18:06:15;12.10;91.30
36924;DHT22;22841;50.252;18.688;2022-10-31T18:08:42;12.10;90.30
36924;DHT22;22841;50.252;18.688;2022-10-31T18:11:18;12.10;87.90
36924;DHT22;22841;50.252;18.688;2022-10-31T18:13:45;12.00;90.90
36924;DHT22;22841;50.252;18.688;2022-10-31T18:16:15;12.00;90.90
36924;DHT22;22841;50.252;18.688;2022-10-31T18:18:42;12.00;91.10
36924;DHT22;22841;50.252;18.688;2022-10-31T18:21:08;11.90;91.40
36924;DHT22;22841;50.252;18.688;2022-10-31T18:23:34;11.90;91.60
36924;DHT22;22841;50.252;18.688;2022-10-31T18:26:00;11.90;92.20